sensor_id;sensor_type;location;lat;lon;timestamp;P1;durP1;ratioP1;P2;durP2;ratioP2
4704;SDS011;2366;51.332;6.610;2022-11-20T00:03:35;27.33;;;13.52;;
4704;SDS011;2366;51.332;6.610;2022-11-20T00:06:01;23.10;;;13.90;;
4704;SDS011;2366;51.332;6.610;2022-11-20T00:08:27;29.92;;;13.93;;
4704;SDS011;2366;51.332;6.610;2022-11-20T00:10:53;28.80;;;15.07;;
4704;SDS011;2366;51.332;6.610;2022-11-20T00:13:18;26.97;;;14.83;;
4704;SDS011;2366;51.332;6.610;2022-11-20T00:15:43;25.73;;;15.17;;
4704;SDS011;2366;51.332;6.610;2022-11-20T00:18:09;26.77;;;15.03;;
4704;SDS011;2366;51.332;6.610;2022-11-20T00:20:34;27.00;;;13.40;;
4704;SDS011;2366;51.332;6.610;2022-11-20T00:22:59;20.10;;;12.50;;
4704;SDS011;2366;51.332;6.610;2022-11-20T00:25:25;26.00;;;15.80;;
4704;SDS011;2366;51.332;6.610;2022-11-20T00:27:50;23.13;;;13.57;;
4704;SDS011;2366;51.332;6.610;2022-11-20T00:30:15;27.03;;;14.90;;
4704;SDS011;2366;51.332;6.610;2022-11-20T00:32:41;19.93;;;12.17;;
4704;SDS011;2366;51.332;6.610;2022-11-20T00:35:06;27.17;;;14.20;;
4704;SDS011;2366;51.332;6.610;2022-11-20T00:37:32;20.63;;;13.33;;
4704;SDS011;2366;51.332;6.610;2022-11-20T00:39:57;26.20;;;13.43;;
4704;SDS011;2366;51.332;6.610;2022-11-20T00:42:22;32.30;;;15.80;;
4704;SDS011;2366;51.332;6.610;2022-11-20T00:44:48;25.90;;;15.63;;
4704;SDS011;2366;51.332;6.610;2022-11-20T00:47:13;24.30;;;14.87;;
4704;SDS011;2366;51.332;6.610;2022-11-20T00:49:39;28.27;;;14.30;;
4704;SDS011;2366;51.332;6.610;2022-11-20T00:52:04;28.10;;;13.10;;
4704;SDS011;2366;51.332;6.610;2022-11-20T00:54:29;30.37;;;15.17;;
4704;SDS011;2366;51.332;6.610;2022-11-20T00:56:55;23.93;;;12.23;;
4704;SDS011;2366;51.332;6.610;2022-11-20T00:59:20;21.33;;;14.50;;
4704;SDS011;2366;51.332;6.610;2022-11-20T01:01:45;25.97;;;14.87;;
4704;SDS011;2366;51.332;6.610;2022-11-20T01:04:11;23.37;;;14.33;;
4704;SDS011;2366;51.332;6.610;2022-11-20T01:06:38;25.13;;;15.30;;
4704;SDS011;2366;51.332;6.610;2022-11-20T01:09:05;31.10;;;14.75;;
4704;SDS011;2366;51.332;6.610;2022-11-20T01:11:36;30.98;;;15.20;;
4704;SDS011;2366;51.332;6.610;2022-11-20T01:14:04;24.42;;;15.07;;
4704;SDS011;2366;51.332;6.610;2022-11-20T01:16:33;25.25;;;15.00;;
4704;SDS011;2366;51.332;6.610;2022-11-20T01:19:00;29.00;;;16.02;;
4704;SDS011;2366;51.332;6.610;2022-11-20T01:21:32;24.80;;;15.52;;
4704;SDS011;2366;51.332;6.610;2022-11-20T01:23:59;25.35;;;14.75;;
4704;SDS011;2366;51.332;6.610;2022-11-20T01:26:26;24.17;;;13.95;;
4704;SDS011;2366;51.332;6.610;2022-11-20T01:28:54;28.98;;;16.00;;
4704;SDS011;2366;51.332;6.610;2022-11-20T01:31:22;30.23;;;16.73;;
4704;SDS011;2366;51.332;6.610;2022-11-20T01:33:52;22.33;;;14.73;;
4704;SDS011;2366;51.332;6.610;2022-11-20T01:36:19;29.25;;;16.42;;
4704;SDS011;2366;51.332;6.610;2022-11-20T01:38:46;21.63;;;14.18;;
4704;SDS011;2366;51.332;6.610;2022-11-20T01:41:12;27.07;;;15.30;;
4704;SDS011;2366;51.332;6.610;2022-11-20T01:43:59;29.55;;;17.10;;
4704;SDS011;2366;51.332;6.610;2022-11-20T01:46:24;27.13;;;16.70;;
4704;SDS011;2366;51.332;6.610;2022-11-20T01:51:20;30.70;;;17.60;;
4704;SDS011;2366;51.332;6.610;2022-11-20T01:53:50;24.42;;;16.85;;
4704;SDS011;2366;51.332;6.610;2022-11-20T01:56:18;27.45;;;14.75;;
4704;SDS011;2366;51.332;6.610;2022-11-20T01:58:46;28.00;;;17.37;;
4704;SDS011;2366;51.332;6.610;2022-11-20T02:01:15;26.58;;;16.13;;
4704;SDS011;2366;51.332;6.610;2022-11-20T02:03:40;22.00;;;14.40;;
4704;SDS011;2366;51.332;6.610;2022-11-20T02:08:44;28.67;;;16.33;;
4704;SDS011;2366;51.332;6.610;2022-11-20T02:11:09;23.00;;;15.23;;
4704;SDS011;2366;51.332;6.610;2022-11-20T02:13:35;25.73;;;16.50;;
4704;SDS011;2366;51.332;6.610;2022-11-20T02:16:10;23.23;;;14.60;;
4704;SDS011;2366;51.332;6.610;2022-11-20T02:18:39;27.70;;;17.33;;
4704;SDS011;2366;51.332;6.610;2022-11-20T02:23:50;23.50;;;15.45;;
4704;SDS011;2366;51.332;6.610;2022-11-20T02:26:22;27.40;;;16.05;;
4704;SDS011;2366;51.332;6.610;2022-11-20T02:28:49;24.10;;;16.27;;
4704;SDS011;2366;51.332;6.610;2022-11-20T02:31:15;27.17;;;16.45;;
4704;SDS011;2366;51.332;6.610;2022-11-20T02:33:40;31.90;;;17.30;;
4704;SDS011;2366;51.332;6.610;2022-11-20T02:36:07;35.40;;;17.00;;
4704;SDS011;2366;51.332;6.610;2022-11-20T02:38:36;22.77;;;15.80;;
4704;SDS011;2366;51.332;6.610;2022-11-20T02:41:02;32.90;;;16.77;;
4704;SDS011;2366;51.332;6.610;2022-11-20T02:43:27;28.60;;;16.80;;
4704;SDS011;2366;51.332;6.610;2022-11-20T02:45:53;27.30;;;16.67;;
4704;SDS011;2366;51.332;6.610;2022-11-20T02:48:18;29.07;;;17.67;;
4704;SDS011;2366;51.332;6.610;2022-11-20T02:50:43;30.40;;;18.70;;
4704;SDS011;2366;51.332;6.610;2022-11-20T02:53:09;33.10;;;18.30;;
4704;SDS011;2366;51.332;6.610;2022-11-20T02:55:34;34.87;;;18.03;;
4704;SDS011;2366;51.332;6.610;2022-11-20T02:58:00;31.90;;;17.75;;
4704;SDS011;2366;51.332;6.610;2022-11-20T03:00:25;23.03;;;15.77;;
4704;SDS011;2366;51.332;6.610;2022-11-20T03:02:51;37.67;;;19.93;;
4704;SDS011;2366;51.332;6.610;2022-11-20T03:05:16;34.60;;;18.47;;
4704;SDS011;2366;51.332;6.610;2022-11-20T03:07:42;29.77;;;18.30;;
4704;SDS011;2366;51.332;6.610;2022-11-20T03:10:08;35.95;;;19.45;;
4704;SDS011;2366;51.332;6.610;2022-11-20T03:12:34;29.27;;;16.53;;
4704;SDS011;2366;51.332;6.610;2022-11-20T03:14:59;36.87;;;20.10;;
4704;SDS011;2366;51.332;6.610;2022-11-20T03:17:24;25.67;;;15.47;;
4704;SDS011;2366;51.332;6.610;2022-11-20T03:19:50;25.10;;;15.40;;
4704;SDS011;2366;51.332;6.610;2022-11-20T03:22:15;34.23;;;16.43;;
4704;SDS011;2366;51.332;6.610;2022-11-20T03:24:40;30.83;;;18.23;;
4704;SDS011;2366;51.332;6.610;2022-11-20T03:27:06;32.07;;;17.63;;
4704;SDS011;2366;51.332;6.610;2022-11-20T03:29:31;26.83;;;17.13;;
4704;SDS011;2366;51.332;6.610;2022-11-20T03:31:57;26.33;;;16.95;;
4704;SDS011;2366;51.332;6.610;2022-11-20T03:34:22;24.73;;;17.43;;
4704;SDS011;2366;51.332;6.610;2022-11-20T03:36:48;31.73;;;20.43;;
4704;SDS011;2366;51.332;6.610;2022-11-20T03:39:13;28.17;;;17.83;;
4704;SDS011;2366;51.332;6.610;2022-11-20T03:41:39;30.57;;;18.30;;
4704;SDS011;2366;51.332;6.610;2022-11-20T03:44:06;23.55;;;15.73;;
4704;SDS011;2366;51.332;6.610;2022-11-20T03:46:34;27.23;;;16.60;;
4704;SDS011;2366;51.332;6.610;2022-11-20T03:49:00;35.13;;;18.37;;
4704;SDS011;2366;51.332;6.610;2022-11-20T03:51:27;32.08;;;18.45;;
4704;SDS011;2366;51.332;6.610;2022-11-20T03:53:58;26.30;;;16.35;;
4704;SDS011;2366;51.332;6.610;2022-11-20T03:56:26;35.35;;;17.75;;
4704;SDS011;2366;51.332;6.610;2022-11-20T03:58:54;31.58;;;17.38;;
4704;SDS011;2366;51.332;6.610;2022-11-20T04:01:21;34.33;;;18.47;;
4704;SDS011;2366;51.332;6.610;2022-11-20T04:03:48;29.75;;;16.40;;
4704;SDS011;2366;51.332;6.610;2022-11-20T04:06:15;27.23;;;16.17;;
4704;SDS011;2366;51.332;6.610;2022-11-20T04:08:53;32.95;;;18.20;;
4704;SDS011;2366;51.332;6.610;2022-11-20T04:11:21;27.65;;;18.38;;
4704;SDS011;2366;51.332;6.610;2022-11-20T04:13:52;35.10;;;18.58;;
4704;SDS011;2366;51.332;6.610;2022-11-20T04:16:20;27.90;;;16.55;;
4704;SDS011;2366;51.332;6.610;2022-11-20T04:18:46;29.52;;;17.33;;
4704;SDS011;2366;51.332;6.610;2022-11-20T04:21:12;24.83;;;16.83;;
4704;SDS011;2366;51.332;6.610;2022-11-20T04:23:37;37.07;;;18.23;;
4704;SDS011;2366;51.332;6.610;2022-11-20T04:26:07;25.17;;;17.15;;
4704;SDS011;2366;51.332;6.610;2022-11-20T04:28:34;28.15;;;17.75;;
4704;SDS011;2366;51.332;6.610;2022-11-20T04:31:04;28.20;;;16.88;;
4704;SDS011;2366;51.332;6.610;2022-11-20T04:33:34;39.60;;;16.60;;
4704;SDS011;2366;51.332;6.610;2022-11-20T04:36:02;20.60;;;14.15;;
4704;SDS011;2366;51.332;6.610;2022-11-20T04:38:38;24.60;;;16.27;;
4704;SDS011;2366;51.332;6.610;2022-11-20T04:41:06;22.83;;;14.45;;
4704;SDS011;2366;51.332;6.610;2022-11-20T04:43:32;27.42;;;16.58;;
4704;SDS011;2366;51.332;6.610;2022-11-20T04:45:59;49.83;;;16.33;;
4704;SDS011;2366;51.332;6.610;2022-11-20T04:48:25;26.10;;;15.43;;
4704;SDS011;2366;51.332;6.610;2022-11-20T04:50:52;26.40;;;16.30;;
4704;SDS011;2366;51.332;6.610;2022-11-20T04:53:18;30.67;;;16.83;;
4704;SDS011;2366;51.332;6.610;2022-11-20T04:55:45;29.55;;;16.23;;
4704;SDS011;2366;51.332;6.610;2022-11-20T04:58:10;32.00;;;16.20;;
4704;SDS011;2366;51.332;6.610;2022-11-20T05:00:36;28.33;;;16.33;;
4704;SDS011;2366;51.332;6.610;2022-11-20T05:03:02;30.50;;;14.23;;
4704;SDS011;2366;51.332;6.610;2022-11-20T05:05:27;20.93;;;15.43;;
4704;SDS011;2366;51.332;6.610;2022-11-20T05:07:55;28.97;;;15.80;;
4704;SDS011;2366;51.332;6.610;2022-11-20T05:10:21;27.10;;;15.40;;
4704;SDS011;2366;51.332;6.610;2022-11-20T05:12:47;28.80;;;15.20;;
4704;SDS011;2366;51.332;6.610;2022-11-20T05:15:12;27.80;;;17.10;;
4704;SDS011;2366;51.332;6.610;2022-11-20T05:17:37;32.10;;;17.23;;
4704;SDS011;2366;51.332;6.610;2022-11-20T05:20:03;21.53;;;14.87;;
4704;SDS011;2366;51.332;6.610;2022-11-20T05:22:28;30.13;;;16.60;;
4704;SDS011;2366;51.332;6.610;2022-11-20T05:24:54;28.20;;;16.20;;
4704;SDS011;2366;51.332;6.610;2022-11-20T05:27:19;26.40;;;14.90;;
4704;SDS011;2366;51.332;6.610;2022-11-20T05:29:45;25.13;;;15.68;;
4704;SDS011;2366;51.332;6.610;2022-11-20T05:32:10;32.60;;;17.50;;
4704;SDS011;2366;51.332;6.610;2022-11-20T05:34:36;30.23;;;15.70;;
4704;SDS011;2366;51.332;6.610;2022-11-20T05:37:01;32.43;;;16.93;;
4704;SDS011;2366;51.332;6.610;2022-11-20T05:39:27;27.58;;;14.82;;
4704;SDS011;2366;51.332;6.610;2022-11-20T05:41:53;24.30;;;15.50;;
4704;SDS011;2366;51.332;6.610;2022-11-20T05:44:39;23.90;;;14.10;;
4704;SDS011;2366;51.332;6.610;2022-11-20T05:47:04;33.45;;;16.98;;
4704;SDS011;2366;51.332;6.610;2022-11-20T05:49:30;26.40;;;15.57;;
4704;SDS011;2366;51.332;6.610;2022-11-20T05:51:56;26.70;;;16.47;;
4704;SDS011;2366;51.332;6.610;2022-11-20T05:54:22;29.27;;;16.40;;
4704;SDS011;2366;51.332;6.610;2022-11-20T05:56:47;21.10;;;13.90;;
4704;SDS011;2366;51.332;6.610;2022-11-20T05:59:12;24.40;;;16.47;;
4704;SDS011;2366;51.332;6.610;2022-11-20T06:01:38;28.27;;;17.30;;
4704;SDS011;2366;51.332;6.610;2022-11-20T06:04:03;28.50;;;16.47;;
4704;SDS011;2366;51.332;6.610;2022-11-20T06:06:28;32.67;;;15.37;;
4704;SDS011;2366;51.332;6.610;2022-11-20T06:08:54;27.70;;;15.60;;
4704;SDS011;2366;51.332;6.610;2022-11-20T06:11:20;22.88;;;14.55;;
4704;SDS011;2366;51.332;6.610;2022-11-20T06:13:46;25.90;;;16.60;;
4704;SDS011;2366;51.332;6.610;2022-11-20T06:16:12;23.03;;;16.17;;
4704;SDS011;2366;51.332;6.610;2022-11-20T06:18:39;26.23;;;16.33;;
4704;SDS011;2366;51.332;6.610;2022-11-20T06:21:09;28.90;;;17.30;;
4704;SDS011;2366;51.332;6.610;2022-11-20T06:23:36;23.55;;;14.45;;
4704;SDS011;2366;51.332;6.610;2022-11-20T06:26:03;24.87;;;14.90;;
4704;SDS011;2366;51.332;6.610;2022-11-20T06:28:30;26.00;;;15.88;;
4704;SDS011;2366;51.332;6.610;2022-11-20T06:30:55;22.80;;;14.90;;
4704;SDS011;2366;51.332;6.610;2022-11-20T06:33:21;22.67;;;16.07;;
4704;SDS011;2366;51.332;6.610;2022-11-20T06:35:47;22.43;;;15.77;;
4704;SDS011;2366;51.332;6.610;2022-11-20T06:38:12;23.17;;;15.93;;
4704;SDS011;2366;51.332;6.610;2022-11-20T06:40:39;21.03;;;14.00;;
4704;SDS011;2366;51.332;6.610;2022-11-20T06:43:05;26.92;;;14.88;;
4704;SDS011;2366;51.332;6.610;2022-11-20T06:45:31;25.07;;;15.00;;
4704;SDS011;2366;51.332;6.610;2022-11-20T06:47:59;25.80;;;15.03;;
4704;SDS011;2366;51.332;6.610;2022-11-20T06:50:25;26.63;;;16.48;;
4704;SDS011;2366;51.332;6.610;2022-11-20T06:52:50;19.30;;;14.80;;
4704;SDS011;2366;51.332;6.610;2022-11-20T06:55:15;24.37;;;15.37;;
4704;SDS011;2366;51.332;6.610;2022-11-20T06:57:41;22.87;;;15.37;;
4704;SDS011;2366;51.332;6.610;2022-11-20T07:00:06;21.90;;;13.80;;
4704;SDS011;2366;51.332;6.610;2022-11-20T07:02:32;24.38;;;14.45;;
4704;SDS011;2366;51.332;6.610;2022-11-20T07:04:57;28.27;;;16.47;;
4704;SDS011;2366;51.332;6.610;2022-11-20T07:07:23;25.13;;;14.50;;
4704;SDS011;2366;51.332;6.610;2022-11-20T07:09:48;28.07;;;17.27;;
4704;SDS011;2366;51.332;6.610;2022-11-20T07:12:13;21.50;;;14.63;;
4704;SDS011;2366;51.332;6.610;2022-11-20T07:14:39;23.57;;;14.27;;
4704;SDS011;2366;51.332;6.610;2022-11-20T07:17:04;22.80;;;14.57;;
4704;SDS011;2366;51.332;6.610;2022-11-20T07:19:29;26.90;;;14.83;;
4704;SDS011;2366;51.332;6.610;2022-11-20T07:21:55;25.27;;;15.37;;
4704;SDS011;2366;51.332;6.610;2022-11-20T07:24:20;32.23;;;15.87;;
4704;SDS011;2366;51.332;6.610;2022-11-20T07:26:46;25.50;;;15.87;;
4704;SDS011;2366;51.332;6.610;2022-11-20T07:29:12;26.58;;;18.58;;
4704;SDS011;2366;51.332;6.610;2022-11-20T07:31:37;31.17;;;18.37;;
4704;SDS011;2366;51.332;6.610;2022-11-20T07:34:03;28.20;;;17.10;;
4704;SDS011;2366;51.332;6.610;2022-11-20T07:36:28;33.57;;;16.87;;
4704;SDS011;2366;51.332;6.610;2022-11-20T07:38:53;29.17;;;18.70;;
4704;SDS011;2366;51.332;6.610;2022-11-20T07:41:19;32.13;;;17.23;;
4704;SDS011;2366;51.332;6.610;2022-11-20T07:43:44;28.43;;;17.17;;
4704;SDS011;2366;51.332;6.610;2022-11-20T07:46:10;33.80;;;18.97;;
4704;SDS011;2366;51.332;6.610;2022-11-20T07:48:35;38.03;;;19.10;;
4704;SDS011;2366;51.332;6.610;2022-11-20T07:51:00;27.30;;;17.33;;
4704;SDS011;2366;51.332;6.610;2022-11-20T07:53:26;28.70;;;18.20;;
4704;SDS011;2366;51.332;6.610;2022-11-20T07:55:51;30.17;;;18.30;;
4704;SDS011;2366;51.332;6.610;2022-11-20T07:58:17;28.93;;;20.03;;
4704;SDS011;2366;51.332;6.610;2022-11-20T08:00:44;31.42;;;19.85;;
4704;SDS011;2366;51.332;6.610;2022-11-20T08:03:09;27.30;;;18.10;;
4704;SDS011;2366;51.332;6.610;2022-11-20T08:05:34;32.00;;;19.03;;
4704;SDS011;2366;51.332;6.610;2022-11-20T08:08:00;25.23;;;17.30;;
4704;SDS011;2366;51.332;6.610;2022-11-20T08:10:25;30.93;;;18.93;;
4704;SDS011;2366;51.332;6.610;2022-11-20T08:12:51;34.83;;;19.30;;
4704;SDS011;2366;51.332;6.610;2022-11-20T08:15:36;36.08;;;18.77;;
4704;SDS011;2366;51.332;6.610;2022-11-20T08:18:04;27.58;;;17.75;;
4704;SDS011;2366;51.332;6.610;2022-11-20T08:20:31;29.23;;;18.73;;
4704;SDS011;2366;51.332;6.610;2022-11-20T08:22:58;28.05;;;17.30;;
4704;SDS011;2366;51.332;6.610;2022-11-20T08:25:24;30.60;;;19.55;;
4704;SDS011;2366;51.332;6.610;2022-11-20T08:27:50;35.20;;;19.70;;
4704;SDS011;2366;51.332;6.610;2022-11-20T08:30:15;32.60;;;19.90;;
4704;SDS011;2366;51.332;6.610;2022-11-20T08:32:41;26.77;;;17.10;;
4704;SDS011;2366;51.332;6.610;2022-11-20T08:35:06;31.33;;;19.23;;
4704;SDS011;2366;51.332;6.610;2022-11-20T08:37:32;26.00;;;16.40;;
4704;SDS011;2366;51.332;6.610;2022-11-20T08:39:57;35.67;;;18.97;;
4704;SDS011;2366;51.332;6.610;2022-11-20T08:42:22;27.33;;;16.50;;
4704;SDS011;2366;51.332;6.610;2022-11-20T08:44:48;27.50;;;18.90;;
4704;SDS011;2366;51.332;6.610;2022-11-20T08:47:13;32.80;;;18.13;;
4704;SDS011;2366;51.332;6.610;2022-11-20T08:49:39;31.07;;;19.57;;
4704;SDS011;2366;51.332;6.610;2022-11-20T08:52:04;30.17;;;19.30;;
4704;SDS011;2366;51.332;6.610;2022-11-20T08:54:30;42.80;;;19.08;;
4704;SDS011;2366;51.332;6.610;2022-11-20T08:56:55;28.00;;;18.60;;
4704;SDS011;2366;51.332;6.610;2022-11-20T08:59:21;30.57;;;18.93;;
4704;SDS011;2366;51.332;6.610;2022-11-20T09:01:46;28.03;;;19.13;;
4704;SDS011;2366;51.332;6.610;2022-11-20T09:04:12;34.20;;;21.87;;
4704;SDS011;2366;51.332;6.610;2022-11-20T09:06:39;34.75;;;18.35;;
4704;SDS011;2366;51.332;6.610;2022-11-20T09:09:04;31.60;;;18.20;;
4704;SDS011;2366;51.332;6.610;2022-11-20T09:11:30;28.53;;;19.13;;
4704;SDS011;2366;51.332;6.610;2022-11-20T09:13:56;31.77;;;19.50;;
4704;SDS011;2366;51.332;6.610;2022-11-20T09:16:21;31.40;;;18.17;;
4704;SDS011;2366;51.332;6.610;2022-11-20T09:18:49;31.77;;;19.43;;
4704;SDS011;2366;51.332;6.610;2022-11-20T09:21:14;28.60;;;17.67;;
4704;SDS011;2366;51.332;6.610;2022-11-20T09:23:40;32.93;;;19.10;;
4704;SDS011;2366;51.332;6.610;2022-11-20T09:26:06;25.17;;;17.23;;
4704;SDS011;2366;51.332;6.610;2022-11-20T09:28:35;24.08;;;16.83;;
4704;SDS011;2366;51.332;6.610;2022-11-20T09:31:00;31.87;;;19.83;;
4704;SDS011;2366;51.332;6.610;2022-11-20T09:33:29;40.95;;;18.55;;
4704;SDS011;2366;51.332;6.610;2022-11-20T09:35:54;28.87;;;17.80;;
4704;SDS011;2366;51.332;6.610;2022-11-20T09:38:20;29.77;;;18.00;;
4704;SDS011;2366;51.332;6.610;2022-11-20T09:40:46;27.50;;;17.20;;
4704;SDS011;2366;51.332;6.610;2022-11-20T09:43:22;26.23;;;17.27;;
4704;SDS011;2366;51.332;6.610;2022-11-20T09:51:13;32.78;;;19.65;;
4704;SDS011;2366;51.332;6.610;2022-11-20T09:54:06;23.40;;;16.85;;
4704;SDS011;2366;51.332;6.610;2022-11-20T09:56:40;30.17;;;20.00;;
4704;SDS011;2366;51.332;6.610;2022-11-20T09:59:14;28.30;;;19.13;;
4704;SDS011;2366;51.332;6.610;2022-11-20T10:01:46;34.92;;;20.88;;
4704;SDS011;2366;51.332;6.610;2022-11-20T10:04:13;27.30;;;18.07;;
4704;SDS011;2366;51.332;6.610;2022-11-20T10:06:44;30.33;;;19.60;;
4704;SDS011;2366;51.332;6.610;2022-11-20T10:12:12;30.67;;;19.15;;
4704;SDS011;2366;51.332;6.610;2022-11-20T10:26:19;36.75;;;20.95;;
4704;SDS011;2366;51.332;6.610;2022-11-20T10:33:58;33.92;;;19.77;;
4704;SDS011;2366;51.332;6.610;2022-11-20T10:36:32;40.58;;;22.58;;
4704;SDS011;2366;51.332;6.610;2022-11-20T10:39:03;34.53;;;20.90;;
4704;SDS011;2366;51.332;6.610;2022-11-20T10:41:40;30.15;;;18.75;;
4704;SDS011;2366;51.332;6.610;2022-11-20T10:44:11;35.28;;;19.65;;
4704;SDS011;2366;51.332;6.610;2022-11-20T10:47:19;41.80;;;21.70;;
4704;SDS011;2366;51.332;6.610;2022-11-20T10:49:46;44.78;;;20.75;;
4704;SDS011;2366;51.332;6.610;2022-11-20T11:00:20;37.97;;;21.17;;
4704;SDS011;2366;51.332;6.610;2022-11-20T11:02:52;41.10;;;19.63;;
4704;SDS011;2366;51.332;6.610;2022-11-20T11:05:31;40.00;;;20.50;;
4704;SDS011;2366;51.332;6.610;2022-11-20T11:08:01;43.08;;;22.05;;
4704;SDS011;2366;51.332;6.610;2022-11-20T11:10:33;41.97;;;20.40;;
4704;SDS011;2366;51.332;6.610;2022-11-20T11:13:06;35.35;;;21.17;;
4704;SDS011;2366;51.332;6.610;2022-11-20T11:15:39;38.10;;;21.73;;
4704;SDS011;2366;51.332;6.610;2022-11-20T11:18:09;41.20;;;20.23;;
4704;SDS011;2366;51.332;6.610;2022-11-20T11:20:35;35.53;;;18.90;;
4704;SDS011;2366;51.332;6.610;2022-11-20T11:23:01;38.90;;;20.70;;
4704;SDS011;2366;51.332;6.610;2022-11-20T11:25:33;36.47;;;19.48;;
4704;SDS011;2366;51.332;6.610;2022-11-20T11:28:04;41.55;;;19.75;;
4704;SDS011;2366;51.332;6.610;2022-11-20T11:30:45;44.55;;;21.58;;
4704;SDS011;2366;51.332;6.610;2022-11-20T11:33:32;32.75;;;18.40;;
4704;SDS011;2366;51.332;6.610;2022-11-20T11:36:14;34.72;;;18.38;;
4704;SDS011;2366;51.332;6.610;2022-11-20T11:38:48;38.40;;;19.20;;
4704;SDS011;2366;51.332;6.610;2022-11-20T11:41:22;38.22;;;20.10;;
4704;SDS011;2366;51.332;6.610;2022-11-20T11:43:56;32.15;;;17.90;;
4704;SDS011;2366;51.332;6.610;2022-11-20T11:46:44;41.03;;;20.38;;
4704;SDS011;2366;51.332;6.610;2022-11-20T11:49:18;38.60;;;19.13;;
4704;SDS011;2366;51.332;6.610;2022-11-20T11:57:04;34.63;;;19.48;;
4704;SDS011;2366;51.332;6.610;2022-11-20T11:59:49;34.60;;;18.75;;
4704;SDS011;2366;51.332;6.610;2022-11-20T12:07:45;27.77;;;16.20;;
4704;SDS011;2366;51.332;6.610;2022-11-20T12:15:58;29.88;;;16.85;;
4704;SDS011;2366;51.332;6.610;2022-11-20T12:18:25;30.52;;;16.50;;
4704;SDS011;2366;51.332;6.610;2022-11-20T12:26:39;33.33;;;17.35;;
4704;SDS011;2366;51.332;6.610;2022-11-20T12:40:17;29.77;;;18.17;;
4704;SDS011;2366;51.332;6.610;2022-11-20T12:42:49;25.65;;;14.75;;
4704;SDS011;2366;51.332;6.610;2022-11-20T12:50:51;27.67;;;16.30;;
4704;SDS011;2366;51.332;6.610;2022-11-20T13:04:12;25.40;;;15.95;;
4704;SDS011;2366;51.332;6.610;2022-11-20T13:07:00;28.98;;;15.57;;
4704;SDS011;2366;51.332;6.610;2022-11-20T13:09:27;26.52;;;16.17;;
4704;SDS011;2366;51.332;6.610;2022-11-20T13:11:58;34.13;;;17.38;;
4704;SDS011;2366;51.332;6.610;2022-11-20T13:14:37;28.88;;;16.95;;
4704;SDS011;2366;51.332;6.610;2022-11-20T13:19:36;31.27;;;17.30;;
4704;SDS011;2366;51.332;6.610;2022-11-20T13:22:02;34.97;;;16.07;;
4704;SDS011;2366;51.332;6.610;2022-11-20T13:24:28;28.57;;;16.70;;
4704;SDS011;2366;51.332;6.610;2022-11-20T13:29:33;31.10;;;17.95;;
4704;SDS011;2366;51.332;6.610;2022-11-20T13:32:04;29.30;;;17.23;;
4704;SDS011;2366;51.332;6.610;2022-11-20T13:34:35;32.35;;;18.27;;
4704;SDS011;2366;51.332;6.610;2022-11-20T13:37:01;32.43;;;19.50;;
4704;SDS011;2366;51.332;6.610;2022-11-20T13:39:30;33.97;;;18.67;;
4704;SDS011;2366;51.332;6.610;2022-11-20T13:42:01;34.47;;;16.73;;
4704;SDS011;2366;51.332;6.610;2022-11-20T13:44:39;37.00;;;19.45;;
4704;SDS011;2366;51.332;6.610;2022-11-20T13:47:46;35.50;;;20.20;;
4704;SDS011;2366;51.332;6.610;2022-11-20T13:50:02;34.42;;;20.15;;
4704;SDS011;2366;51.332;6.610;2022-11-20T14:00:58;37.45;;;18.48;;
4704;SDS011;2366;51.332;6.610;2022-11-20T14:03:33;35.92;;;18.67;;
4704;SDS011;2366;51.332;6.610;2022-11-20T14:06:45;31.92;;;19.42;;
4704;SDS011;2366;51.332;6.610;2022-11-20T14:08:56;41.90;;;20.90;;
4704;SDS011;2366;51.332;6.610;2022-11-20T14:11:23;36.33;;;18.70;;
4704;SDS011;2366;51.332;6.610;2022-11-20T14:13:55;35.78;;;20.65;;
4704;SDS011;2366;51.332;6.610;2022-11-20T14:16:24;44.60;;;21.05;;
4704;SDS011;2366;51.332;6.610;2022-11-20T14:18:51;34.95;;;19.55;;
4704;SDS011;2366;51.332;6.610;2022-11-20T14:21:25;35.38;;;19.55;;
4704;SDS011;2366;51.332;6.610;2022-11-20T14:23:52;40.38;;;21.33;;
4704;SDS011;2366;51.332;6.610;2022-11-20T14:26:18;37.83;;;19.88;;
4704;SDS011;2366;51.332;6.610;2022-11-20T14:28:48;48.28;;;22.50;;
4704;SDS011;2366;51.332;6.610;2022-11-20T14:31:18;48.45;;;24.77;;
4704;SDS011;2366;51.332;6.610;2022-11-20T14:33:48;37.80;;;20.95;;
4704;SDS011;2366;51.332;6.610;2022-11-20T14:36:17;52.43;;;22.40;;
4704;SDS011;2366;51.332;6.610;2022-11-20T14:38:44;40.25;;;21.58;;
4704;SDS011;2366;51.332;6.610;2022-11-20T14:41:21;44.75;;;19.98;;
4704;SDS011;2366;51.332;6.610;2022-11-20T14:43:56;36.25;;;20.95;;
4704;SDS011;2366;51.332;6.610;2022-11-20T14:46:22;38.40;;;19.85;;
4704;SDS011;2366;51.332;6.610;2022-11-20T14:48:53;42.80;;;21.58;;
4704;SDS011;2366;51.332;6.610;2022-11-20T14:51:28;41.33;;;20.52;;
4704;SDS011;2366;51.332;6.610;2022-11-20T14:56:39;42.92;;;22.02;;
4704;SDS011;2366;51.332;6.610;2022-11-20T14:59:05;44.33;;;22.10;;
4704;SDS011;2366;51.332;6.610;2022-11-20T15:01:32;33.78;;;20.20;;
4704;SDS011;2366;51.332;6.610;2022-11-20T15:04:04;41.53;;;20.58;;
4704;SDS011;2366;51.332;6.610;2022-11-20T15:06:36;34.10;;;20.60;;
4704;SDS011;2366;51.332;6.610;2022-11-20T15:09:17;50.50;;;24.98;;
4704;SDS011;2366;51.332;6.610;2022-11-20T15:11:52;42.70;;;21.83;;
4704;SDS011;2366;51.332;6.610;2022-11-20T15:14:20;43.88;;;25.33;;
4704;SDS011;2366;51.332;6.610;2022-11-20T15:16:45;43.40;;;22.43;;
4704;SDS011;2366;51.332;6.610;2022-11-20T15:19:14;33.70;;;20.20;;
4704;SDS011;2366;51.332;6.610;2022-11-20T15:21:43;36.63;;;18.73;;
4704;SDS011;2366;51.332;6.610;2022-11-20T15:24:09;36.90;;;18.57;;
4704;SDS011;2366;51.332;6.610;2022-11-20T15:26:35;40.03;;;20.43;;
4704;SDS011;2366;51.332;6.610;2022-11-20T15:29:02;43.00;;;23.20;;
4704;SDS011;2366;51.332;6.610;2022-11-20T15:31:28;38.85;;;20.92;;
4704;SDS011;2366;51.332;6.610;2022-11-20T15:33:54;44.73;;;21.40;;
4704;SDS011;2366;51.332;6.610;2022-11-20T15:36:19;38.57;;;20.77;;
4704;SDS011;2366;51.332;6.610;2022-11-20T15:38:44;33.47;;;20.13;;
4704;SDS011;2366;51.332;6.610;2022-11-20T15:41:10;38.67;;;22.30;;
4704;SDS011;2366;51.332;6.610;2022-11-20T15:43:36;40.00;;;20.40;;
4704;SDS011;2366;51.332;6.610;2022-11-20T15:46:03;41.03;;;21.40;;
4704;SDS011;2366;51.332;6.610;2022-11-20T15:48:41;39.60;;;21.92;;
4704;SDS011;2366;51.332;6.610;2022-11-20T15:53:34;37.70;;;20.50;;
4704;SDS011;2366;51.332;6.610;2022-11-20T15:55:59;44.17;;;21.97;;
4704;SDS011;2366;51.332;6.610;2022-11-20T15:58:25;38.33;;;20.73;;
4704;SDS011;2366;51.332;6.610;2022-11-20T16:00:51;48.90;;;20.80;;
4704;SDS011;2366;51.332;6.610;2022-11-20T16:03:17;47.08;;;22.20;;
4704;SDS011;2366;51.332;6.610;2022-11-20T16:05:43;33.30;;;17.83;;
4704;SDS011;2366;51.332;6.610;2022-11-20T16:08:09;35.45;;;20.40;;
4704;SDS011;2366;51.332;6.610;2022-11-20T16:10:34;42.53;;;21.70;;
4704;SDS011;2366;51.332;6.610;2022-11-20T16:13:01;39.92;;;19.08;;
4704;SDS011;2366;51.332;6.610;2022-11-20T16:15:46;40.22;;;21.73;;
4704;SDS011;2366;51.332;6.610;2022-11-20T16:18:22;37.58;;;20.95;;
4704;SDS011;2366;51.332;6.610;2022-11-20T16:20:51;38.40;;;20.43;;
4704;SDS011;2366;51.332;6.610;2022-11-20T16:23:18;50.00;;;21.33;;
4704;SDS011;2366;51.332;6.610;2022-11-20T16:25:44;42.30;;;20.38;;
4704;SDS011;2366;51.332;6.610;2022-11-20T16:28:10;44.00;;;20.37;;
4704;SDS011;2366;51.332;6.610;2022-11-20T16:30:36;45.97;;;21.80;;
4704;SDS011;2366;51.332;6.610;2022-11-20T16:33:02;41.80;;;20.20;;
4704;SDS011;2366;51.332;6.610;2022-11-20T16:35:28;50.78;;;21.83;;
4704;SDS011;2366;51.332;6.610;2022-11-20T16:37:55;38.80;;;19.30;;
4704;SDS011;2366;51.332;6.610;2022-11-20T16:40:23;49.80;;;20.83;;
4704;SDS011;2366;51.332;6.610;2022-11-20T16:42:49;32.83;;;20.35;;
4704;SDS011;2366;51.332;6.610;2022-11-20T16:47:49;44.20;;;21.75;;